Time;durP1;ratioP1;P1;durP2;ratioP2;P2;SDS_P1;SDS_P2;PMS_P1;PMS_P2;Temp;Humidity;BMP_temperature;BMP_pressure;BME280_temperature;BME280_humidity;BME280_pressure;Samples;Min_cycle;Max_cycle;Signal;HPM_P1;HPM_P2
2023/06/23 00:00:43;17589.00;0.06;31.09;0.00;0.00;0.62;;;;;22.90;4.60;;;;;;2284593;60;1119;-87
2023/06/23 00:03:10;147.00;0.00;0.87;0.00;0.00;0.62;;;;;22.80;5.50;;;;;;2284483;60;1092;-86
2023/06/23 00:05:38;0.00;0.00;0.62;0.00;0.00;0.62;;;;;22.90;5.40;;;;;;2284554;60;1016;-85
2023/06/23 00:08:06;95564.00;0.32;165.91;1440.00;0.00;3.12;;;;;23.20;5.40;;;;;;2284500;60;1578;-85
2023/06/23 00:10:33;0.00;0.00;0.62;0.00;0.00;0.62;;;;;23.30;5.10;;;;;;2284445;60;1608;-84
2023/06/23 00:15:33;1173381.00;3.91;2042.17;136235.00;0.45;236.08;;;;;23.70;5.00;;;;;;2286626;60;1418;-88
2023/06/23 00:18:08;1030503.00;3.44;1786.57;40825.00;0.14;71.32;;;;;23.50;5.20;;;;;;2284626;60;1502;-85
2023/06/23 00:20:39;1172257.00;3.91;2040.14;111629.00;0.37;193.64;;;;;23.40;6.20;;;;;;2284493;60;1603;-86
2023/06/23 00:23:06;889428.00;2.96;1537.56;100104.00;0.33;173.75;;;;;23.40;7.10;;;;;;2284385;60;1044;-84
2023/06/23 00:25:32;807294.00;2.69;1393.85;120589.00;0.40;209.10;;;;;23.50;5.90;;;;;;2283973;61;1100;-85
2023/06/23 00:27:59;754933.00;2.52;1302.64;109831.00;0.37;190.54;;;;;23.40;6.20;;;;;;2284447;60;1363;-85
2023/06/23 00:30:26;1002220.00;3.34;1736.40;116676.00;0.39;202.35;;;;;23.50;6.90;;;;;;2284686;60;1041;-84
2023/06/23 00:32:53;1139779.00;3.80;1981.71;176424.00;0.59;305.33;;;;;23.30;7.60;;;;;;2284468;60;1907;-85
2023/06/23 00:35:21;487324.00;1.62;840.00;132727.00;0.44;230.03;;;;;23.20;8.30;;;;;;2284548;60;1125;-86
2023/06/23 00:37:50;118649464.00;395.50;67660968.00;118326168.00;394.42;67108904.00;;;;;23.10;8.40;;;;;;2284467;60;1329;-85
2023/06/23 00:40:16;333675.00;1.11;575.80;72858.00;0.24;126.70;;;;;23.10;8.40;;;;;;2284673;60;1047;-87
2023/06/23 00:42:45;241363.00;0.80;417.10;84620.00;0.28;147.02;;;;;23.10;9.10;;;;;;2284762;60;1076;-86
2023/06/23 00:45:13;164819.00;0.55;285.34;76061.00;0.25;132.23;;;;;23.10;8.50;;;;;;2284544;60;1318;-90
2023/06/23 00:47:42;92777.00;0.31;161.10;25711.00;0.09;45.16;;;;;23.00;8.60;;;;;;2284369;60;1402;-85
2023/06/23 00:50:10;68299.00;0.23;118.82;0.00;0.00;0.62;;;;;22.80;9.90;;;;;;2284335;60;1512;-88
2023/06/23 00:52:37;25968.00;0.09;45.60;0.00;0.00;0.62;;;;;22.70;9.80;;;;;;2284403;60;1911;-88
2023/06/23 00:55:06;122720.00;0.41;212.77;26402.00;0.09;46.35;;;;;22.60;11.20;;;;;;2284475;60;1007;-88
2023/06/23 00:57:36;0.00;0.00;0.62;0.00;0.00;0.62;;;;;22.70;9.80;;;;;;2284388;60;1395;-86
2023/06/23 01:00:11;0.00;0.00;0.62;0.00;0.00;0.62;;;;;22.40;11.30;;;;;;2284048;60;1449;-84
2023/06/23 01:02:38;9269.00;0.03;16.68;0.00;0.00;0.62;;;;;22.30;11.70;;;;;;2284134;60;1086;-85
2023/06/23 01:05:06;70172.00;0.23;122.06;3981.00;0.01;7.52;;;;;22.40;13.00;;;;;;2283779;61;1144;-85
2023/06/23 01:07:42;237.00;0.00;1.03;0.00;0.00;0.62;;;;;22.60;11.70;;;;;;2283744;61;1895;-85
2023/06/23 01:10:20;0.00;0.00;0.62;0.00;0.00;0.62;;;;;22.70;11.60;;;;;;2283151;60;1151;-84
2023/06/23 01:12:57;0.00;0.00;0.62;0.00;0.00;0.62;;;;;22.70;11.50;;;;;;2283563;61;1998;-84
2023/06/23 01:15:32;0.00;0.00;0.62;0.00;0.00;0.62;;;;;22.60;9.80;;;;;;2283670;61;1596;-84
2023/06/23 01:18:09;69987.00;0.23;121.74;4412.00;0.01;8.27;;;;;22.70;12.20;;;;;;2283009;61;1357;-84
2023/06/23 01:20:42;0.00;0.00;0.62;0.00;0.00;0.62;;;;;22.90;11.30;;;;;;2283403;61;1124;-85
2023/06/23 01:23:27;439989.00;1.47;758.56;22368.00;0.07;39.37;;;;;22.90;11.00;;;;;;2282913;61;1113;-85
2023/06/23 01:26:03;1056507.00;3.52;1832.81;125543.00;0.42;217.64;;;;;22.80;10.50;;;;;;2283160;61;1044;-85
2023/06/23 01:28:47;1257983.00;4.19;2195.41;224811.00;0.75;388.62;;;;;22.60;11.20;;;;;;2283080;61;1157;-85
2023/06/23 01:31:18;601855.00;2.01;1037.42;89533.00;0.30;155.50;;;;;22.50;11.40;;;;;;2283676;61;1141;-85
2023/06/23 01:33:49;169628.00;0.57;293.63;79136.00;0.26;137.54;;;;;22.60;12.50;;;;;;2283788;60;2020;-86
2023/06/23 01:36:23;16280.00;0.05;28.83;0.00;0.00;0.62;;;;;22.70;12.20;;;;;;2283689;60;1872;-86
2023/06/23 01:38:57;111867.00;0.37;194.05;0.00;0.00;0.62;;;;;22.90;10.20;;;;;;2283503;60;1325;-84
2023/06/23 01:41:29;27231.00;0.09;47.79;0.00;0.00;0.62;;;;;22.70;10.40;;;;;;2282325;61;1118;-85
2023/06/23 01:44:01;28516.00;0.10;50.01;0.00;0.00;0.62;;;;;22.70;10.70;;;;;;2282154;61;1238;-84
2023/06/23 01:46:34;33040.00;0.11;57.84;0.00;0.00;0.62;;;;;22.60;11.10;;;;;;2281187;61;1426;-84
2023/06/23 01:49:10;0.00;0.00;0.62;0.00;0.00;0.62;;;;;22.40;12.30;;;;;;2281351;61;1070;-82
2023/06/23 01:51:40;0.00;0.00;0.62;0.00;0.00;0.62;;;;;22.40;11.70;;;;;;2280429;61;1102;-82
2023/06/23 01:54:08;0.00;0.00;0.62;0.00;0.00;0.62;;;;;22.10;11.80;;;;;;2280042;61;1925;-82
2023/06/23 01:56:38;0.00;0.00;0.62;0.00;0.00;0.62;;;;;21.90;10.80;;;;;;2280545;61;1388;-83
2023/06/23 01:59:08;762374.00;2.54;1315.58;56347.00;0.19;98.16;;;;;21.70;10.60;;;;;;2280609;61;1046;-83
2023/06/23 02:01:37;1690172.00;5.63;3006.34;178260.00;0.59;308.49;;;;;21.50;11.00;;;;;;2280494;61;1086;-84
2023/06/23 02:04:06;1443501.00;4.81;2537.25;178641.00;0.60;309.15;;;;;21.50;9.60;;;;;;2280980;61;1100;-84
2023/06/23 02:06:37;285913.00;0.95;493.70;84135.00;0.28;146.18;;;;;21.30;8.90;;;;;;2280321;61;1430;-84
2023/06/23 02:09:06;318898.00;1.06;550.40;82606.00;0.28;143.54;;;;;21.20;10.30;;;;;;2281095;61;1106;-85
2023/06/23 02:11:36;215640.00;0.72;372.84;105702.00;0.35;183.41;;;;;21.40;10.70;;;;;;2280825;61;1184;-83
2023/06/23 02:14:04;49768.00;0.17;86.78;0.00;0.00;0.62;;;;;21.30;8.80;;;;;;2280896;61;2008;-84
2023/06/23 02:16:35;0.00;0.00;0.62;0.00;0.00;0.62;;;;;21.40;8.40;;;;;;2281283;61;1275;-84
2023/06/23 02:19:03;52070.00;0.17;90.77;0.00;0.00;0.62;;;;;21.40;8.20;;;;;;2281463;61;1242;-83
2023/06/23 02:21:32;63880.00;0.21;111.18;0.00;0.00;0.62;;;;;21.50;7.30;;;;;;2280934;61;1166;-83
2023/06/23 02:24:05;5886.00;0.02;10.82;0.00;0.00;0.62;;;;;21.60;7.30;;;;;;2281570;61;1660;-84
2023/06/23 02:26:35;71832.00;0.24;124.93;0.00;0.00;0.62;;;;;21.60;7.30;;;;;;2281493;61;1497;-83
2023/06/23 02:29:04;35550.00;0.12;62.19;0.00;0.00;0.62;;;;;21.50;6.50;;;;;;2281185;61;1074;-84
2023/06/23 02:31:31;36325.00;0.12;63.53;0.00;0.00;0.62;;;;;21.70;6.80;;;;;;2283977;60;1073;-83
2023/06/23 02:33:59;40455.00;0.13;70.68;0.00;0.00;0.62;;;;;21.80;5.60;;;;;;2282653;61;2000;-83
2023/06/23 02:36:31;22515.00;0.08;39.63;0.00;0.00;0.62;;;;;21.90;5.70;;;;;;2284156;60;1300;-84
2023/06/23 02:39:03;0.00;0.00;0.62;0.00;0.00;0.62;;;;;22.00;6.10;;;;;;2283863;60;2020;-82
2023/06/23 02:41:35;0.00;0.00;0.62;0.00;0.00;0.62;;;;;22.00;6.30;;;;;;2280672;61;1212;-83
2023/06/23 02:44:07;28057.00;0.09;49.22;0.00;0.00;0.62;;;;;22.10;4.20;;;;;;2280708;61;2126;-83
2023/06/23 02:46:38;47847.00;0.16;83.46;0.00;0.00;0.62;;;;;22.00;5.00;;;;;;2280797;61;1458;-82
2023/06/23 02:49:11;20750.00;0.07;36.57;0.00;0.00;0.62;;;;;22.00;5.20;;;;;;2280855;61;1566;-83
2023/06/23 02:51:41;8828.00;0.03;15.92;0.00;0.00;0.62;;;;;21.90;6.30;;;;;;2281030;61;1130;-83
2023/06/23 02:54:12;12365.00;0.04;22.05;0.00;0.00;0.62;;;;;22.00;5.50;;;;;;2281662;61;2131;-84
2023/06/23 02:56:43;298999.00;1.00;516.20;7574.00;0.03;13.75;;;;;22.00;5.90;;;;;;2281851;61;1464;-83
2023/06/23 02:59:14;1005048.00;3.35;1741.41;188009.00;0.63;325.28;;;;;22.10;5.00;;;;;;2281580;61;1229;-84
2023/06/23 03:01:45;929198.00;3.10;1607.46;118518.00;0.40;205.53;;;;;21.90;5.80;;;;;;2282040;61;1125;-84
2023/06/23 03:04:13;996581.00;3.32;1726.42;68863.00;0.23;119.80;;;;;21.80;6.30;;;;;;2281405;61;1158;-83
2023/06/23 03:06:42;776580.00;2.59;1340.31;41472.00;0.14;72.44;;;;;21.30;7.90;;;;;;2281317;61;1288;-84
2023/06/23 03:09:09;636602.00;2.12;1097.46;50353.00;0.17;87.80;;;;;21.10;9.60;;;;;;2281439;61;1259;-83
2023/06/23 03:11:38;1202490.00;4.01;2094.72;107147.00;0.36;185.91;;;;;20.80;11.00;;;;;;2282259;61;1208;-84
2023/06/23 03:14:05;669859.00;2.23;1155.01;52115.00;0.17;90.84;;;;;20.80;10.70;;;;;;2282331;61;2008;-84
2023/06/23 03:16:43;1102173.00;3.67;1914.31;67818.00;0.23;117.99;;;;;21.10;10.00;;;;;;2281617;61;1432;-84
2023/06/23 03:19:23;930636.00;3.10;1609.99;164321.00;0.55;284.48;;;;;21.20;8.40;;;;;;2281654;61;1194;-84
2023/06/23 03:21:55;1231385.00;4.10;2147.07;118487.00;0.39;205.47;;;;;21.10;9.10;;;;;;2281529;61;1137;-84
2023/06/23 03:24:30;774952.00;2.58;1337.47;88309.00;0.29;153.39;;;;;21.10;9.30;;;;;;2281798;61;1100;-84
2023/06/23 03:26:59;1050170.00;3.50;1821.54;90799.00;0.30;157.69;;;;;21.20;8.40;;;;;;2281744;61;1489;-84
2023/06/23 03:29:31;1242571.00;4.14;2167.38;140618.00;0.47;243.64;;;;;20.90;10.30;;;;;;2282117;61;1134;-83
2023/06/23 03:32:04;1098645.00;3.66;1908.00;177691.00;0.59;307.51;;;;;21.00;10.10;;;;;;2282080;61;1196;-83
2023/06/23 03:34:41;804944.00;2.68;1389.75;55504.00;0.19;96.70;;;;;21.20;9.20;;;;;;2281525;61;1995;-83
2023/06/23 03:37:10;1164510.00;3.88;2026.18;80720.00;0.27;140.28;;;;;21.10;9.40;;;;;;2281637;61;1419;-83
2023/06/23 03:39:41;1426255.00;4.75;2505.11;237468.00;0.79;410.40;;;;;21.00;9.60;;;;;;2281812;61;1114;-83
2023/06/23 03:42:09;711590.00;2.37;1227.34;135980.00;0.45;235.64;;;;;21.00;10.30;;;;;;2281312;61;1146;-84
2023/06/23 03:44:40;118176256.00;393.92;66853932.00;85939.00;0.29;149.29;;;;;21.00;9.90;;;;;;2281763;61;1149;-84
2023/06/23 03:47:14;263134.00;0.88;454.54;69537.00;0.23;120.96;;;;;20.70;10.90;;;;;;2281672;61;1477;-84
2023/06/23 03:49:45;10894.00;0.04;19.50;0.00;0.00;0.62;;;;;20.80;11.30;;;;;;2281441;61;1090;-84
2023/06/23 03:52:15;53069.00;0.18;92.49;0.00;0.00;0.62;;;;;20.80;9.90;;;;;;2281453;61;1156;-84
2023/06/23 03:54:47;116508.00;0.39;202.06;0.00;0.00;0.62;;;;;20.90;10.40;;;;;;2281365;61;2010;-84
2023/06/23 03:57:20;56695.00;0.19;98.76;0.00;0.00;0.62;;;;;21.00;9.40;;;;;;2281440;61;1462;-84
2023/06/23 03:59:50;12914.00;0.04;23.00;0.00;0.00;0.62;;;;;21.00;9.70;;;;;;2281571;61;1088;-84
2023/06/23 04:02:20;32923.00;0.11;57.64;0.00;0.00;0.62;;;;;21.00;9.20;;;;;;2282338;61;1260;-85
2023/06/23 04:04:50;0.00;0.00;0.62;0.00;0.00;0.62;;;;;21.10;8.50;;;;;;2282864;61;1117;-84
2023/06/23 04:07:19;151960.00;0.51;263.19;55985.00;0.19;97.54;;;;;20.90;9.70;;;;;;2282484;61;1394;-83
2023/06/23 04:09:50;167413.00;0.56;289.81;0.00;0.00;0.62;;;;;20.70;10.50;;;;;;2282477;61;1149;-84
2023/06/23 04:12:18;20534.00;0.07;36.19;0.00;0.00;0.62;;;;;20.50;11.40;;;;;;2282833;61;1430;-84
2023/06/23 04:14:48;38389.00;0.13;67.10;0.00;0.00;0.62;;;;;20.30;12.00;;;;;;2282704;61;2025;-83
2023/06/23 04:17:18;63533.00;0.21;110.58;0.00;0.00;0.62;;;;;20.20;13.00;;;;;;2282920;61;1415;-84
2023/06/23 04:19:51;9773.00;0.03;17.56;0.00;0.00;0.62;;;;;20.20;13.30;;;;;;2282623;61;1191;-85
2023/06/23 04:22:21;127858.00;0.43;221.64;0.00;0.00;0.62;;;;;20.20;13.20;;;;;;2283404;60;1085;-85
2023/06/23 04:24:51;42297.00;0.14;73.86;0.00;0.00;0.62;;;;;20.30;11.90;;;;;;2284519;60;1037;-85
2023/06/23 04:27:20;93058.00;0.31;161.59;0.00;0.00;0.62;;;;;20.30;12.00;;;;;;2283196;60;1257;-84
2023/06/23 04:29:49;0.00;0.00;0.62;0.00;0.00;0.62;;;;;20.30;12.00;;;;;;2282268;61;1701;-84
2023/06/23 04:32:17;224650.00;0.75;388.34;77625.00;0.26;134.93;;;;;20.00;12.60;;;;;;2282674;61;1129;-81
2023/06/23 04:34:46;119831.00;0.40;207.79;0.00;0.00;0.62;;;;;20.00;12.80;;;;;;2282023;61;2010;-83
2023/06/23 04:37:25;71445.00;0.24;124.26;0.00;0.00;0.62;;;;;20.30;12.00;;;;;;2281674;61;1278;-84
2023/06/23 04:40:00;169084.00;0.56;292.69;2799.00;0.01;5.47;;;;;20.70;9.40;;;;;;2281429;61;1471;-84
2023/06/23 04:42:34;455306.00;1.52;784.91;0.00;0.00;0.62;;;;;20.90;8.80;;;;;;2281362;61;1553;-84
2023/06/23 04:45:03;1039908.00;3.47;1803.28;164440.00;0.55;284.69;;;;;21.00;8.30;;;;;;2281759;61;1140;-83
2023/06/23 04:47:35;1252900.00;4.18;2186.16;182570.00;0.61;315.92;;;;;20.80;8.90;;;;;;2283000;60;1378;-86
2023/06/23 04:50:11;1415041.00;4.72;2484.25;69060.00;0.23;120.14;;;;;20.80;8.60;;;;;;2284377;60;1137;-86
2023/06/23 04:52:46;1150817.00;3.84;2001.55;151428.00;0.50;262.27;;;;;21.00;7.20;;;;;;2284375;60;915;-84
2023/06/23 04:55:18;1332998.00;4.44;2332.62;150278.00;0.50;260.29;;;;;21.10;7.50;;;;;;2283964;60;2007;-86
2023/06/23 04:57:47;1278970.00;4.26;2233.67;90028.00;0.30;156.36;;;;;21.40;6.30;;;;;;2284146;60;1430;-83
2023/06/23 05:00:21;1055196.00;3.52;1830.48;168113.00;0.56;291.02;;;;;21.60;5.70;;;;;;2283672;60;1442;-84
2023/06/23 05:02:56;894680.00;2.98;1546.78;59395.00;0.20;103.43;;;;;21.40;4.90;;;;;;2284292;60;1094;-85
2023/06/23 05:05:30;625066.00;2.08;1077.52;0.00;0.00;0.62;;;;;20.90;6.80;;;;;;2283790;60;1482;-85
2023/06/23 05:08:09;325199.00;1.08;561.23;10477.00;0.03;18.78;;;;;20.90;6.90;;;;;;2284370;60;1612;-85
2023/06/23 05:10:42;111635.00;0.37;193.65;0.00;0.00;0.62;;;;;21.00;6.60;;;;;;2283662;60;1177;-84
2023/06/23 05:13:17;134244.00;0.45;232.65;0.00;0.00;0.62;;;;;20.80;6.70;;;;;;2283077;61;1992;-85
2023/06/23 05:15:47;241035.00;0.80;416.53;51481.00;0.17;89.75;;;;;20.80;6.90;;;;;;2282794;61;1074;-84
2023/06/23 05:18:17;167409.00;0.56;289.80;0.00;0.00;0.62;;;;;20.70;6.80;;;;;;2282648;61;1368;-84
2023/06/23 05:20:51;42159.00;0.14;73.62;0.00;0.00;0.62;;;;;20.60;7.80;;;;;;2283387;61;1912;-83
2023/06/23 05:23:20;145287.00;0.48;251.68;0.00;0.00;0.62;;;;;20.70;7.90;;;;;;2282839;61;1184;-82
2023/06/23 05:25:51;293122.00;0.98;506.10;41556.00;0.14;72.58;;;;;20.80;6.40;;;;;;2283365;61;1472;-84
2023/06/23 05:28:21;226770.00;0.76;391.99;70088.00;0.23;121.91;;;;;21.00;5.10;;;;;;2282897;61;1528;-83
2023/06/23 05:30:52;87984.00;0.29;152.83;0.00;0.00;0.62;;;;;21.10;4.90;;;;;;2283429;61;1477;-83
2023/06/23 05:33:21;5812.00;0.02;10.69;0.00;0.00;0.62;;;;;21.00;4.90;;;;;;2283551;61;1918;-84
2023/06/23 05:35:50;38179.00;0.13;66.74;0.00;0.00;0.62;;;;;21.30;4.40;;;;;;2283281;61;1576;-84
2023/06/23 05:38:20;376528.00;1.26;649.46;75232.00;0.25;130.80;;;;;21.60;3.00;;;;;;2283676;61;1410;-84
2023/06/23 05:40:51;102229.00;0.34;177.42;27491.00;0.09;48.24;;;;;21.70;2.80;;;;;;2283828;60;1483;-84
2023/06/23 05:43:22;150530.00;0.50;260.72;0.00;0.00;0.62;;;;;21.90;1.70;;;;;;2284148;60;1144;-84
2023/06/23 05:45:54;65322.00;0.22;113.68;0.00;0.00;0.62;;;;;22.00;1.00;;;;;;2283917;60;1152;-83
2023/06/23 05:48:29;230762.00;0.77;398.86;0.00;0.00;0.62;;;;;21.90;1.30;;;;;;2283710;60;1451;-84
2023/06/23 05:50:58;61844.00;0.21;107.66;0.00;0.00;0.62;;;;;22.10;1.00;;;;;;2283816;60;1163;-83
2023/06/23 05:53:28;73268.00;0.24;127.41;0.00;0.00;0.62;;;;;22.10;1.00;;;;;;2283933;60;2010;-85
2023/06/23 05:56:01;20065.00;0.07;35.38;0.00;0.00;0.62;;;;;22.30;1.00;;;;;;2284044;60;1237;-87
2023/06/23 05:58:33;134995.00;0.45;233.94;0.00;0.00;0.62;;;;;22.50;1.00;;;;;;2284138;60;1439;-87
2023/06/23 06:01:05;285127.00;0.95;492.35;13016.00;0.04;23.17;;;;;22.40;1.00;;;;;;2284085;60;1137;-85
2023/06/23 06:03:46;16123.00;0.05;28.56;0.00;0.00;0.62;;;;;22.30;1.00;;;;;;2284121;60;1101;-85
2023/06/23 06:06:20;169936.00;0.57;294.16;0.00;0.00;0.62;;;;;21.80;1.00;;;;;;2283825;60;1705;-84
2023/06/23 06:08:57;179544.00;0.60;310.70;29376.00;0.10;51.50;;;;;21.50;1.00;;;;;;2284164;60;1052;-85
2023/06/23 06:11:28;88440.00;0.29;153.61;0.00;0.00;0.62;;;;;21.50;1.00;;;;;;2284038;60;2236;-85
2023/06/23 06:14:05;71381.00;0.24;124.15;0.00;0.00;0.62;;;;;21.30;1.00;;;;;;2283987;60;1994;-86
2023/06/23 06:16:34;199769.00;0.67;345.53;0.00;0.00;0.62;;;;;21.60;1.00;;;;;;2284038;60;1479;-86
2023/06/23 06:19:03;113222.00;0.38;196.39;0.00;0.00;0.62;;;;;21.70;1.00;;;;;;2284117;60;1149;-86
2023/06/23 06:21:33;109878.00;0.37;190.62;0.00;0.00;0.62;;;;;21.70;1.00;;;;;;2284086;60;1172;-85
2023/06/23 06:24:07;51918.00;0.17;90.50;0.00;0.00;0.62;;;;;21.60;1.00;;;;;;2283910;60;1566;-84
2023/06/23 06:26:34;137770.00;0.46;238.73;0.00;0.00;0.62;;;;;21.90;1.00;;;;;;2284037;60;1392;-85
2023/06/23 06:29:07;53444.00;0.18;93.14;0.00;0.00;0.62;;;;;21.80;1.20;;;;;;2284090;60;958;-84
2023/06/23 06:31:37;25614.00;0.09;44.99;0.00;0.00;0.62;;;;;21.90;1.10;;;;;;2284137;60;1487;-88
2023/06/23 06:34:19;159622.00;0.53;276.39;29076.00;0.10;50.98;;;;;22.10;1.00;;;;;;2284163;60;1994;-86
2023/06/23 06:36:48;304494.00;1.01;525.65;22286.00;0.07;39.23;;;;;22.00;1.60;;;;;;2283786;60;1556;-87
2023/06/23 06:39:17;185798.00;0.62;321.47;0.00;0.00;0.62;;;;;22.10;1.00;;;;;;2284110;60;2186;-84
2023/06/23 06:41:47;348296.00;1.16;600.93;15231.00;0.05;27.01;;;;;22.30;1.00;;;;;;2284207;60;1006;-88
2023/06/23 06:44:14;86626.00;0.29;150.48;0.00;0.00;0.62;;;;;22.70;1.00;;;;;;2284120;60;1145;-87
2023/06/23 06:46:47;106849.00;0.36;185.39;0.00;0.00;0.62;;;;;22.70;1.00;;;;;;2283968;60;1560;-88
2023/06/23 06:49:23;155116.00;0.52;268.62;0.00;0.00;0.62;;;;;22.80;1.00;;;;;;2284059;60;993;-89
2023/06/23 06:51:54;346644.00;1.16;598.09;88402.00;0.29;153.55;;;;;23.10;1.00;;;;;;2284048;60;2208;-87
2023/06/23 06:54:30;198302.00;0.66;343.00;82715.00;0.28;143.73;;;;;23.30;1.00;;;;;;2283948;60;1915;-86
2023/06/23 06:57:03;305256.00;1.02;526.95;84453.00;0.28;146.73;;;;;23.40;1.00;;;;;;2283898;60;1663;-88
2023/06/23 06:59:45;452897.00;1.51;780.77;81060.00;0.27;140.87;;;;;23.40;1.00;;;;;;2283944;60;993;-89
2023/06/23 07:02:22;703100.00;2.34;1212.61;88567.00;0.30;153.83;;;;;23.60;1.00;;;;;;2283954;60;1717;-89
2023/06/23 07:05:04;356254.00;1.19;614.61;1177.00;0.00;2.66;;;;;24.00;1.00;;;;;;2283953;60;1621;-88
2023/06/23 07:07:41;491272.00;1.64;846.80;19647.00;0.07;34.66;;;;;24.10;1.00;;;;;;2283965;60;1545;-87
2023/06/23 07:12:40;310492.00;1.03;535.96;0.00;0.00;0.62;;;;;24.00;1.00;;;;;;2286229;61;1304;-88
2023/06/23 07:15:14;96932.00;0.32;168.28;0.00;0.00;0.62;;;;;24.00;1.00;;;;;;2283971;60;2013;-88
2023/06/23 07:17:45;86920.00;0.29;150.99;0.00;0.00;0.62;;;;;23.60;1.00;;;;;;2284097;60;1368;-87
2023/06/23 07:20:14;193790.00;0.65;335.23;39698.00;0.13;69.37;;;;;23.50;1.00;;;;;;2284215;60;1526;-88
2023/06/23 07:22:44;182259.00;0.61;315.38;0.00;0.00;0.62;;;;;23.50;1.00;;;;;;2283992;60;1446;-88
2023/06/23 07:25:12;116091.00;0.39;201.34;0.00;0.00;0.62;;;;;24.50;1.00;;;;;;2284113;60;1350;-88
2023/06/23 07:27:52;;;;;;;;;;;;;;;;;;;;;
2023/06/23 07:30:26;258406.00;0.86;446.41;0.00;0.00;0.62;;;;;25.60;1.00;;;;;;2280359;60;1594;-86
2023/06/23 07:32:53;191878.00;0.64;331.94;0.00;0.00;0.62;;;;;26.60;1.00;;;;;;2283978;60;1633;-88
2023/06/23 07:35:26;158312.00;0.53;274.13;0.00;0.00;0.62;;;;;27.60;1.00;;;;;;2284205;60;2000;-88
2023/06/23 07:37:56;260162.00;0.87;449.43;0.00;0.00;0.62;;;;;28.20;1.00;;;;;;2284408;60;1419;-88
2023/06/23 07:40:33;443003.00;1.48;763.75;55425.00;0.18;96.57;;;;;28.00;1.00;;;;;;2284681;60;1767;-88
2023/06/23 07:43:04;240793.00;0.80;416.12;7286.00;0.02;13.25;;;;;28.40;1.00;;;;;;2284412;60;1630;-88
2023/06/23 07:45:31;337862.00;1.13;583.00;0.00;0.00;0.62;;;;;28.30;1.00;;;;;;2284668;60;1141;-87
2023/06/23 08:13:48;653052.00;2.18;1125.92;16148.00;0.05;28.60;;;;;29.30;1.00;;;;;;2509411;55;3569;31
2023/06/23 08:24:26;0.00;0.00;0.62;0.00;0.00;0.62;;;;;31.30;1.00;;;;;;2535980;56;1815;31
2023/06/23 09:07:10;5787.00;0.02;10.65;0.00;0.00;0.62;;;;;31.50;1.00;;;;;;2262728;39;2391;-89
2023/06/23 09:09:42;52077.00;0.17;90.78;0.00;0.00;0.62;;;;;30.70;1.00;;;;;;2272672;61;1776;-90
2023/06/23 09:47:56;1081711.00;3.61;1877.75;119456.00;0.40;207.14;;;;;28.20;1.00;;;;;;2270126;61;1262;-89
2023/06/23 10:20:59;124055584.00;413.52;77347016.00;75997.00;0.25;132.12;;;;;29.10;1.00;;;;;;2270705;61;1000;-90
2023/06/23 10:33:46;772421.00;2.57;1333.07;74117.00;0.25;128.87;;;;;28.60;1.00;;;;;;2324962;55;3627;-88
2023/06/23 10:41:22;1074864.00;3.58;1865.53;161186.00;0.54;279.08;;;;;28.90;1.00;;;;;;2410661;40;3047;-90
2023/06/23 10:44:00;1005110.00;3.35;1741.52;14949.00;0.05;26.52;;;;;28.50;1.00;;;;;;2299276;41;3682;-88
2023/06/23 10:46:35;1039123.00;3.46;1801.89;17473.00;0.06;30.89;;;;;28.00;1.00;;;;;;2285549;55;3857;-88
2023/06/23 10:51:40;1174238.00;3.91;2043.71;125311.00;0.42;217.24;;;;;27.30;1.00;;;;;;2288396;55;3682;-88
2023/06/23 11:12:37;1015602.00;3.39;1760.12;149207.00;0.50;258.44;;;;;29.40;1.00;;;;;;2421864;40;1923;-88
2023/06/23 11:22:55;1146060.00;3.82;1992.99;103657.00;0.35;179.88;;;;;29.30;1.00;;;;;;2276512;55;3667;-90
2023/06/23 11:43:23;1329607.00;4.43;2326.39;173577.00;0.58;300.43;;;;;29.20;1.00;;;;;;2270707;61;1326;-87
2023/06/23 11:46:04;990005.00;3.30;1714.78;165444.00;0.55;286.42;;;;;29.50;1.00;;;;;;2307531;56;3761;-89
2023/06/23 11:51:00;1260482.00;4.20;2199.96;75661.00;0.25;131.54;;;;;30.50;1.00;;;;;;2281321;56;3643;-88
2023/06/23 11:53:32;836454.00;2.79;1444.78;68019.00;0.23;118.34;;;;;30.20;1.00;;;;;;2272543;61;1035;-87
2023/06/23 11:56:04;1098477.00;3.66;1907.70;152375.00;0.51;263.90;;;;;30.40;1.00;;;;;;2272402;61;1915;-88
2023/06/23 11:58:38;1351243.00;4.50;2366.20;81638.00;0.27;141.87;;;;;30.80;1.00;;;;;;2292514;55;3792;-88
2023/06/23 12:01:06;1077892.00;3.59;1870.93;127397.00;0.42;220.84;;;;;30.90;1.00;;;;;;2272660;61;1153;-86
2023/06/23 12:03:35;1394839.00;4.65;2446.76;152163.00;0.51;263.54;;;;;31.00;1.00;;;;;;2272467;61;1752;-88
2023/06/23 12:06:02;755383.00;2.52;1303.42;102168.00;0.34;177.31;;;;;30.70;1.00;;;;;;2272686;61;932;-88
2023/06/23 12:11:05;1168012.00;3.89;2032.49;163500.00;0.55;283.07;;;;;30.30;1.00;;;;;;2417741;40;2236;-88
2023/06/23 12:13:37;726310.00;2.42;1252.89;55953.00;0.19;97.48;;;;;30.20;1.00;;;;;;2272562;61;1407;-86
2023/06/23 12:16:06;999463.00;3.33;1731.52;124097.00;0.41;215.15;;;;;29.20;1.00;;;;;;2272582;61;2006;-88
2023/06/23 12:18:33;878779.00;2.93;1518.88;45250.00;0.15;78.97;;;;;28.50;1.00;;;;;;2268465;61;1040;-86
2023/06/23 12:21:01;1690762.00;5.64;3007.49;260773.00;0.87;450.48;;;;;28.40;1.00;;;;;;2268407;61;1518;-86
2023/06/23 12:23:32;1103353.00;3.68;1916.42;102656.00;0.34;178.16;;;;;28.50;1.00;;;;;;2268288;61;1125;-88
2023/06/23 12:28:36;1574338.00;5.25;2783.80;127315.00;0.42;220.70;;;;;29.50;1.00;;;;;;2055441;40;3394;-87
2023/06/23 12:31:04;806584.00;2.69;1392.61;15884.00;0.05;28.14;;;;;29.70;1.00;;;;;;2272481;61;2259;-86
2023/06/23 12:33:33;816410.00;2.72;1409.76;59012.00;0.20;102.77;;;;;29.50;1.00;;;;;;2272469;61;1098;-86
2023/06/23 12:36:03;789750.00;2.63;1363.25;40956.00;0.14;71.54;;;;;29.20;1.00;;;;;;2272342;61;1919;-86
2023/06/23 12:38:36;948856.00;3.16;1642.09;56245.00;0.19;97.99;;;;;29.10;1.00;;;;;;2281137;55;3739;-88
2023/06/23 12:41:16;442228.00;1.47;762.41;76343.00;0.25;132.72;;;;;29.10;1.00;;;;;;2272477;61;1321;-87
2023/06/23 12:46:17;618857.00;2.06;1066.79;0.00;0.00;0.62;;;;;29.30;1.00;;;;;;2269618;61;1482;-89
2023/06/23 12:48:45;371168.00;1.24;640.24;0.00;0.00;0.62;;;;;29.50;1.00;;;;;;2279771;40;3643;-86
2023/06/23 12:51:12;141357.00;0.47;244.91;0.00;0.00;0.62;;;;;29.60;1.00;;;;;;2272477;61;913;-86
2023/06/23 12:53:39;304843.00;1.02;526.24;0.00;0.00;0.62;;;;;29.40;1.00;;;;;;2272471;61;1189;-86
2023/06/23 12:56:09;145370.00;0.48;251.83;0.00;0.00;0.62;;;;;29.50;1.00;;;;;;2272207;61;1998;-87
2023/06/23 12:59:01;129131.00;0.43;223.83;0.00;0.00;0.62;;;;;29.80;1.00;;;;;;2289012;40;3584;-87
2023/06/23 13:01:31;169477.00;0.56;293.37;0.00;0.00;0.62;;;;;30.00;1.00;;;;;;2286570;55;3790;-88
2023/06/23 13:06:31;325566.00;1.09;561.86;0.00;0.00;0.62;;;;;30.10;1.00;;;;;;2266403;61;1377;-89
2023/06/23 13:08:59;214915.00;0.72;371.59;0.00;0.00;0.62;;;;;29.50;1.00;;;;;;2264293;61;1774;-87
2023/06/23 13:11:27;137571.00;0.46;238.38;0.00;0.00;0.62;;;;;29.00;1.00;;;;;;2264333;61;1079;-87
2023/06/23 13:13:55;114932.00;0.38;199.34;0.00;0.00;0.62;;;;;29.10;1.00;;;;;;2264127;61;1554;-87
2023/06/23 13:16:22;98689.00;0.33;171.31;0.00;0.00;0.62;;;;;29.20;1.00;;;;;;2264225;61;1926;-86
2023/06/23 13:18:54;43434.00;0.14;75.83;0.00;0.00;0.62;;;;;28.80;1.00;;;;;;2264270;61;904;-86
2023/06/23 13:21:21;205773.00;0.69;355.86;0.00;0.00;0.62;;;;;29.00;1.00;;;;;;2264172;61;1606;-86
2023/06/23 13:23:48;258439.00;0.86;446.46;0.00;0.00;0.62;;;;;29.40;1.00;;;;;;2264030;61;1613;-87
2023/06/23 13:26:15;224839.00;0.75;388.67;0.00;0.00;0.62;;;;;29.60;1.00;;;;;;2263996;61;1999;-85
2023/06/23 13:28:45;43192.00;0.14;75.41;0.00;0.00;0.62;;;;;29.80;1.00;;;;;;2264204;61;1151;-86
2023/06/23 13:33:54;606684.00;2.02;1045.76;0.00;0.00;0.62;;;;;29.80;1.00;;;;;;1841805;40;3503;-87
2023/06/23 13:46:37;126121.00;0.42;218.64;0.00;0.00;0.62;;;;;29.20;1.00;;;;;;2356719;41;1959;-86
2023/06/23 13:49:05;95376.00;0.32;165.59;0.00;0.00;0.62;;;;;29.00;1.00;;;;;;2272078;61;1006;-87
2023/06/23 13:51:33;37704.00;0.13;65.92;0.00;0.00;0.62;;;;;28.90;1.00;;;;;;2272056;61;1563;-87
2023/06/23 13:54:04;135316.00;0.45;234.50;0.00;0.00;0.62;;;;;29.00;1.00;;;;;;2272101;61;1573;-85